createdAt,value
2018-05-27T00:00:57.080Z,10.03
2018-05-27T00:03:24.681Z,10.07
2018-05-27T00:05:52.325Z,8.27
2018-05-27T00:08:20.665Z,7.77
2018-05-27T00:10:48.219Z,8.40
2018-05-27T00:13:15.809Z,14.10
2018-05-27T00:15:43.387Z,9.17
2018-05-27T00:18:10.992Z,7.10
2018-05-27T00:20:38.542Z,7.73
2018-05-27T00:23:06.917Z,8.17
2018-05-27T00:25:35.259Z,10.43
2018-05-27T00:28:02.856Z,7.37
2018-05-27T00:30:30.415Z,8.47
2018-05-27T00:32:58.014Z,8.00
2018-05-27T00:35:25.604Z,8.30
2018-05-27T00:37:53.216Z,12.63
2018-05-27T00:40:20.799Z,7.53
2018-05-27T00:42:49.129Z,7.23
2018-05-27T00:45:16.727Z,8.80
2018-05-27T00:47:44.300Z,8.17
2018-05-27T00:50:12.691Z,7.67
2018-05-27T00:52:41.022Z,11.57
2018-05-27T00:55:08.632Z,13.70
2018-05-27T00:57:36.962Z,13.27
2018-05-27T01:00:04.562Z,10.90
2018-05-27T01:02:32.124Z,11.20
2018-05-27T01:04:59.722Z,8.90
2018-05-27T01:07:28.059Z,10.20
2018-05-27T01:09:55.674Z,8.87
2018-05-27T01:12:24.006Z,16.27
2018-05-27T01:14:51.598Z,10.77
2018-05-27T01:17:19.167Z,11.00
2018-05-27T01:19:47.545Z,9.27
2018-05-27T01:22:15.906Z,8.70
2018-05-27T01:24:43.513Z,12.80
2018-05-27T01:27:11.837Z,9.53
2018-05-27T01:29:39.581Z,8.43
2018-05-27T01:32:07.160Z,6.73
2018-05-27T01:34:34.733Z,10.37
2018-05-27T01:37:02.331Z,7.87
2018-05-27T01:39:29.897Z,8.43
2018-05-27T01:41:57.473Z,9.23
2018-05-27T01:44:25.024Z,11.93
2018-05-27T01:46:52.619Z,10.23
2018-05-27T01:49:20.928Z,12.60
2018-05-27T01:51:48.930Z,12.73
2018-05-27T01:54:16.489Z,12.37
2018-05-27T01:56:44.049Z,10.83
2018-05-27T01:59:11.639Z,9.97
2018-05-27T02:01:39.201Z,11.87
2018-05-27T02:04:06.785Z,12.90
2018-05-27T02:06:34.379Z,14.43
2018-05-27T02:09:01.947Z,12.33
2018-05-27T02:11:29.502Z,12.07
2018-05-27T02:13:57.085Z,10.93
2018-05-27T02:16:24.643Z,12.50
2018-05-27T02:18:52.220Z,12.67
2018-05-27T02:21:19.762Z,10.67
2018-05-27T02:23:47.348Z,12.77
2018-05-27T02:26:14.913Z,13.00
2018-05-27T02:28:42.516Z,15.23
2018-05-27T02:31:10.073Z,14.30
2018-05-27T02:33:37.666Z,15.83
2018-05-27T02:36:06.020Z,11.87
2018-05-27T02:38:33.603Z,13.63
2018-05-27T02:41:01.171Z,16.47
2018-05-27T02:43:28.721Z,14.80
2018-05-27T02:45:56.316Z,16.73
2018-05-27T02:48:24.634Z,16.87
2018-05-27T02:50:52.221Z,19.67
2018-05-27T02:53:19.785Z,22.47
2018-05-27T02:55:47.366Z,20.40
2018-05-27T02:58:14.927Z,19.70
2018-05-27T03:00:42.527Z,19.87
2018-05-27T03:03:10.870Z,21.27
2018-05-27T03:05:38.463Z,24.23
2018-05-27T03:08:06.805Z,20.80
2018-05-27T03:10:34.399Z,22.80
2018-05-27T03:13:01.962Z,23.40
2018-05-27T03:15:29.552Z,20.23
2018-05-27T03:17:57.169Z,20.17
2018-05-27T03:20:24.727Z,21.37
2018-05-27T03:22:52.318Z,24.10
2018-05-27T03:25:19.893Z,24.77
2018-05-27T03:27:47.486Z,18.63
2018-05-27T03:30:15.079Z,28.20
2018-05-27T03:32:42.672Z,23.87
2018-05-27T03:35:10.273Z,25.03
2018-05-27T03:37:38.651Z,24.60
2018-05-27T03:40:06.978Z,26.17
2018-05-27T03:42:34.572Z,23.40
2018-05-27T03:45:02.931Z,24.43
2018-05-27T03:47:30.533Z,21.63
2018-05-27T03:49:58.107Z,28.10
2018-05-27T03:52:26.450Z,27.73
2018-05-27T03:54:54.013Z,24.83
2018-05-27T03:57:21.593Z,29.70
2018-05-27T03:59:49.155Z,29.57
2018-05-27T04:02:16.741Z,31.07
2018-05-27T04:04:57.868Z,32.23
2018-05-27T04:07:37.405Z,35.47
2018-05-27T04:10:04.965Z,35.93
2018-05-27T04:12:32.532Z,36.77
2018-05-27T04:15:00.111Z,35.87
2018-05-27T04:17:27.655Z,37.50
2018-05-27T04:19:55.247Z,38.53
2018-05-27T04:22:22.796Z,40.43
2018-05-27T04:24:50.391Z,37.87
2018-05-27T04:27:17.967Z,44.27
2018-05-27T04:29:45.585Z,40.73
2018-05-27T04:32:13.157Z,39.13
2018-05-27T04:34:40.744Z,41.20
2018-05-27T04:37:08.308Z,41.23
2018-05-27T04:39:35.923Z,36.60
2018-05-27T04:42:03.479Z,37.97
2018-05-27T04:44:31.844Z,40.13
2018-05-27T04:46:59.983Z,41.97
2018-05-27T04:49:27.577Z,39.90
2018-05-27T04:51:55.140Z,40.17
2018-05-27T04:54:22.775Z,34.50
2018-05-27T04:56:50.366Z,36.30
2018-05-27T04:59:17.932Z,37.70
2018-05-27T05:01:45.550Z,34.67
2018-05-27T05:04:13.136Z,33.07
2018-05-27T05:06:41.551Z,33.93
2018-05-27T05:09:09.117Z,32.90
2018-05-27T05:11:36.703Z,31.70
2018-05-27T05:14:05.064Z,32.53
2018-05-27T05:16:32.674Z,25.27
2018-05-27T05:19:00.259Z,32.23
2018-05-27T05:21:28.620Z,29.77
2018-05-27T05:23:56.174Z,27.47
2018-05-27T05:26:24.836Z,25.83
2018-05-27T05:28:54.171Z,21.83
2018-05-27T05:31:22.494Z,22.90
2018-05-27T05:33:50.080Z,20.87
2018-05-27T05:36:17.728Z,21.37
2018-05-27T05:38:45.329Z,21.13
2018-05-27T05:41:13.672Z,22.87
2018-05-27T05:43:41.304Z,21.63
2018-05-27T05:46:09.605Z,21.67
2018-05-27T05:48:37.468Z,22.03
2018-05-27T05:51:05.052Z,19.10
2018-05-27T05:53:32.663Z,21.50
2018-05-27T05:56:00.227Z,21.50
2018-05-27T05:58:27.804Z,19.93
2018-05-27T06:00:56.132Z,20.37
2018-05-27T06:03:23.767Z,21.03
2018-05-27T06:05:51.334Z,22.37
2018-05-27T06:08:18.951Z,23.50
2018-05-27T06:10:46.605Z,30.60
2018-05-27T06:13:14.269Z,22.37
2018-05-27T06:15:41.867Z,25.13
2018-05-27T06:18:10.460Z,27.47
2018-05-27T06:20:38.814Z,22.90
2018-05-27T06:23:06.503Z,25.30
2018-05-27T06:25:34.865Z,24.87
2018-05-27T06:28:02.618Z,22.90
2018-05-27T06:30:30.217Z,22.83
2018-05-27T06:32:57.843Z,24.83
2018-05-27T06:35:25.446Z,23.20
2018-05-27T06:37:53.030Z,25.30
2018-05-27T06:40:21.571Z,24.67
2018-05-27T06:42:49.137Z,24.40
2018-05-27T06:45:16.720Z,26.93
2018-05-27T06:47:44.280Z,27.20
2018-05-27T06:50:11.992Z,27.40
2018-05-27T06:52:40.392Z,27.93
2018-05-27T06:55:07.987Z,26.07
2018-05-27T06:57:35.573Z,25.00
2018-05-27T07:00:03.203Z,31.20
2018-05-27T07:02:30.747Z,26.77
2018-05-27T07:04:58.389Z,25.23
2018-05-27T07:07:25.932Z,23.53
2018-05-27T07:09:53.734Z,31.67
2018-05-27T07:12:21.581Z,32.33
2018-05-27T07:14:49.143Z,30.50
2018-05-27T07:17:16.719Z,30.17
2018-05-27T07:19:45.034Z,27.23
2018-05-27T07:22:12.930Z,28.57
2018-05-27T07:24:40.538Z,27.27
2018-05-27T07:27:08.222Z,30.87
2018-05-27T07:29:36.603Z,31.50
2018-05-27T07:32:04.961Z,31.53
2018-05-27T07:34:32.655Z,21.83
2018-05-27T07:37:01.410Z,25.20
2018-05-27T07:39:29.150Z,21.07
2018-05-27T07:41:57.473Z,26.17
2018-05-27T07:44:27.905Z,25.03
2018-05-27T07:46:55.683Z,25.10
2018-05-27T07:49:23.268Z,23.93
2018-05-27T07:51:50.877Z,20.77
2018-05-27T07:54:18.456Z,20.83
2018-05-27T07:56:46.048Z,20.17
2018-05-27T07:59:14.411Z,17.87
2018-05-27T08:01:42.847Z,15.47
2018-05-27T08:04:10.425Z,17.87
2018-05-27T08:06:38.038Z,19.63
2018-05-27T08:09:06.501Z,14.03
2018-05-27T08:11:34.082Z,11.60
2018-05-27T08:14:01.682Z,11.83
2018-05-27T08:16:29.290Z,13.43
2018-05-27T08:18:56.912Z,14.60
2018-05-27T08:21:24.475Z,12.13
2018-05-27T08:23:52.307Z,11.13
2018-05-27T08:26:19.903Z,12.30
2018-05-27T08:28:47.505Z,11.80
2018-05-27T08:31:15.078Z,13.73
2018-05-27T08:33:42.686Z,12.60
2018-05-27T08:36:11.007Z,13.57
2018-05-27T08:38:38.593Z,12.37
2018-05-27T08:41:06.159Z,17.00
2018-05-27T08:43:33.821Z,13.33
2018-05-27T08:46:02.106Z,12.67
2018-05-27T08:48:29.701Z,10.93
2018-05-27T08:50:57.286Z,12.07
2018-05-27T08:53:25.666Z,10.10
2018-05-27T08:55:55.010Z,11.37
2018-05-27T08:58:22.604Z,9.73
2018-05-27T09:00:50.157Z,10.60
2018-05-27T09:03:17.697Z,8.80
2018-05-27T09:05:45.287Z,8.63
2018-05-27T09:08:12.858Z,9.00
2018-05-27T09:10:40.466Z,8.57
2018-05-27T09:13:08.155Z,9.07
2018-05-27T09:15:35.727Z,8.73
2018-05-27T09:18:03.293Z,8.33
2018-05-27T09:20:30.881Z,10.43
2018-05-27T09:22:58.463Z,8.27
2018-05-27T09:25:26.049Z,8.77
2018-05-27T09:27:53.629Z,9.13
2018-05-27T09:30:21.221Z,8.47
2018-05-27T09:32:48.786Z,13.03
2018-05-27T09:35:16.394Z,8.03
2018-05-27T09:37:43.975Z,7.50
2018-05-27T09:40:11.596Z,6.93
2018-05-27T09:42:39.165Z,7.47
2018-05-27T09:45:06.775Z,7.70
2018-05-27T09:47:35.092Z,9.87
2018-05-27T09:50:02.665Z,7.33
2018-05-27T09:52:30.225Z,7.23
2018-05-27T09:54:57.806Z,7.47
2018-05-27T09:57:25.388Z,7.00
2018-05-27T09:59:53.009Z,9.10
2018-05-27T10:02:21.346Z,7.67
2018-05-27T10:04:49.735Z,8.03
2018-05-27T10:07:17.315Z,8.93
2018-05-27T10:09:44.919Z,7.23
2018-05-27T10:12:12.504Z,8.37
2018-05-27T10:14:40.059Z,8.17
2018-05-27T10:17:09.233Z,7.87
2018-05-27T10:19:37.014Z,7.73
2018-05-27T10:22:04.606Z,7.60
2018-05-27T10:24:32.170Z,8.43
2018-05-27T10:26:59.741Z,6.07
2018-05-27T10:29:28.093Z,6.13
2018-05-27T10:31:55.677Z,6.27
2018-05-27T10:34:23.243Z,7.13
2018-05-27T10:36:50.799Z,6.27
2018-05-27T10:39:18.374Z,6.67
2018-05-27T10:41:45.916Z,5.53
2018-05-27T10:44:13.509Z,6.13
2018-05-27T10:46:41.099Z,5.40
2018-05-27T10:49:08.680Z,5.80
2018-05-27T10:51:37.039Z,5.60
2018-05-27T10:54:04.664Z,6.10
2018-05-27T10:56:32.235Z,5.47
2018-05-27T10:58:59.813Z,4.43
2018-05-27T11:01:27.405Z,7.40
2018-05-27T11:03:54.989Z,4.63
2018-05-27T11:06:23.308Z,4.73
2018-05-27T11:08:51.012Z,4.93
2018-05-27T11:11:18.647Z,5.27
2018-05-27T11:13:46.203Z,4.83
2018-05-27T11:16:13.781Z,5.20
2018-05-27T11:18:41.331Z,4.80
2018-05-27T11:21:08.916Z,4.77
2018-05-27T11:23:36.477Z,5.17
2018-05-27T11:26:04.058Z,4.90
2018-05-27T11:28:31.660Z,5.37
2018-05-27T11:30:59.239Z,4.70
2018-05-27T11:33:26.835Z,4.33
2018-05-27T11:35:54.460Z,4.50
2018-05-27T11:38:22.071Z,4.93
2018-05-27T11:40:49.666Z,3.90
2018-05-27T11:43:17.231Z,3.53
2018-05-27T11:45:45.689Z,4.43
2018-05-27T11:48:13.236Z,5.10
2018-05-27T11:50:40.845Z,5.30
2018-05-27T11:53:08.437Z,3.37
2018-05-27T11:55:36.808Z,4.70
2018-05-27T11:58:05.207Z,5.37
2018-05-27T12:00:32.847Z,4.17
2018-05-27T12:03:01.249Z,4.80
2018-05-27T12:05:29.928Z,3.93
2018-05-27T12:07:58.296Z,4.03
2018-05-27T12:10:26.089Z,5.23
2018-05-27T12:12:53.724Z,3.77
2018-05-27T12:15:21.289Z,3.90
2018-05-27T12:17:48.878Z,4.00
2018-05-27T12:20:17.213Z,4.37
2018-05-27T12:22:44.853Z,4.20
2018-05-27T12:25:12.419Z,3.97
2018-05-27T12:27:40.021Z,3.57
2018-05-27T12:30:07.577Z,3.80
2018-05-27T12:32:35.170Z,3.67
2018-05-27T12:35:02.730Z,3.83
2018-05-27T12:37:30.331Z,3.90
2018-05-27T12:39:58.663Z,4.13
2018-05-27T12:42:26.410Z,3.87
2018-05-27T12:44:54.033Z,4.77
2018-05-27T12:47:22.459Z,3.77
2018-05-27T12:49:50.054Z,4.23
2018-05-27T12:52:17.618Z,4.40
2018-05-27T12:54:45.220Z,4.57
2018-05-27T12:57:13.569Z,4.70
2018-05-27T12:59:41.289Z,4.77
2018-05-27T13:02:08.855Z,4.83
2018-05-27T13:04:36.448Z,4.67
2018-05-27T13:07:04.007Z,4.93
2018-05-27T13:09:31.591Z,4.40
2018-05-27T13:11:59.145Z,5.00
2018-05-27T13:14:26.726Z,5.57
2018-05-27T13:16:54.464Z,5.43
2018-05-27T13:19:21.925Z,6.47
2018-05-27T13:21:49.488Z,7.10
2018-05-27T13:24:17.073Z,6.53
2018-05-27T13:26:44.643Z,7.57
2018-05-27T13:29:12.240Z,7.80
2018-05-27T13:31:40.577Z,7.57
2018-05-27T13:34:08.141Z,7.43
2018-05-27T13:39:09.857Z,7.40
2018-05-27T13:41:37.569Z,7.13
2018-05-27T13:44:05.164Z,7.17
2018-05-27T13:46:32.803Z,7.27
2018-05-27T13:49:01.120Z,6.93
2018-05-27T13:51:28.722Z,7.63
2018-05-27T13:53:57.051Z,7.77
2018-05-27T13:56:24.636Z,7.13
2018-05-27T13:58:52.195Z,8.47
2018-05-27T14:01:19.799Z,7.13
2018-05-27T14:03:48.178Z,6.90
2018-05-27T14:06:16.537Z,7.27
2018-05-27T14:08:44.104Z,7.97
2018-05-27T14:11:11.685Z,7.03
2018-05-27T14:13:40.048Z,6.97
2018-05-27T14:16:07.596Z,7.30
2018-05-27T14:18:35.187Z,7.17
2018-05-27T14:21:02.749Z,6.97
2018-05-27T14:23:30.367Z,6.70
2018-05-27T14:25:57.941Z,7.23
2018-05-27T14:28:25.532Z,7.17
2018-05-27T14:30:53.088Z,7.30
2018-05-27T14:33:20.721Z,6.83
2018-05-27T14:35:48.275Z,7.07
2018-05-27T14:38:16.620Z,7.17
2018-05-27T14:40:44.172Z,7.27
2018-05-27T14:43:11.763Z,7.13
2018-05-27T14:45:39.333Z,8.27
2018-05-27T14:48:06.918Z,7.37
2018-05-27T14:50:35.311Z,7.43
2018-05-27T14:53:03.652Z,6.93
2018-05-27T14:55:31.207Z,7.47
2018-05-27T14:57:58.793Z,7.20
2018-05-27T15:00:27.133Z,6.73
2018-05-27T15:02:54.742Z,7.10
2018-05-27T15:05:23.103Z,7.70
2018-05-27T15:07:50.663Z,6.33
2018-05-27T15:10:18.259Z,6.30
2018-05-27T15:12:46.689Z,7.40
2018-05-27T15:15:14.347Z,7.43
2018-05-27T15:17:41.991Z,6.87
2018-05-27T15:20:09.595Z,7.20
2018-05-27T15:22:37.202Z,7.77
2018-05-27T15:25:05.576Z,7.43
2018-05-27T15:27:33.150Z,7.23
2018-05-27T15:30:01.513Z,7.67
2018-05-27T15:32:29.091Z,7.10
2018-05-27T15:34:56.679Z,7.43
2018-05-27T15:37:25.003Z,6.83
2018-05-27T15:39:52.615Z,7.13
2018-05-27T15:42:20.944Z,7.77
2018-05-27T15:44:48.519Z,7.13
2018-05-27T15:47:16.111Z,7.87
2018-05-27T15:49:43.693Z,7.97
2018-05-27T15:52:12.045Z,7.53
2018-05-27T15:54:39.602Z,7.80
2018-05-27T15:57:07.193Z,7.37
2018-05-27T15:59:35.537Z,7.57
2018-05-27T16:02:03.130Z,7.60
2018-05-27T16:04:30.694Z,8.00
2018-05-27T16:06:58.293Z,7.77
2018-05-27T16:09:25.852Z,7.83
2018-05-27T16:11:54.210Z,8.10
2018-05-27T16:14:21.761Z,8.27
2018-05-27T16:16:49.345Z,7.30
2018-05-27T16:19:16.899Z,10.93
2018-05-27T16:21:44.493Z,8.57
2018-05-27T16:24:12.814Z,9.00
2018-05-27T16:26:40.413Z,7.83
2018-05-27T16:29:07.991Z,8.50
2018-05-27T16:31:35.547Z,7.60
2018-05-27T16:34:03.135Z,8.43
2018-05-27T16:36:31.454Z,8.13
2018-05-27T16:38:59.041Z,8.50
2018-05-27T16:41:26.603Z,11.07
2018-05-27T16:43:54.211Z,8.00
2018-05-27T16:46:22.555Z,8.37
2018-05-27T16:48:50.167Z,8.20
2018-05-27T16:51:18.371Z,8.27
2018-05-27T16:53:45.966Z,8.03
2018-05-27T16:56:13.527Z,8.33
2018-05-27T16:58:41.121Z,7.30
2018-05-27T17:01:08.679Z,8.33
2018-05-27T17:03:36.284Z,8.03
2018-05-27T17:06:03.848Z,8.03
2018-05-27T17:08:31.439Z,7.83
2018-05-27T17:10:59.000Z,7.70
2018-05-27T17:13:26.609Z,7.70
2018-05-27T17:15:54.159Z,7.30
2018-05-27T17:18:21.739Z,7.23
2018-05-27T17:20:49.313Z,6.97
2018-05-27T17:23:17.646Z,7.57
2018-05-27T17:25:45.230Z,8.27
2018-05-27T17:28:12.870Z,7.83
2018-05-27T17:30:41.199Z,7.90
2018-05-27T17:33:08.836Z,7.57
2018-05-27T17:35:36.435Z,7.83
2018-05-27T17:38:04.014Z,7.77
2018-05-27T17:40:32.379Z,8.40
2018-05-27T17:42:59.949Z,8.73
2018-05-27T17:45:27.578Z,8.57
2018-05-27T17:47:56.030Z,8.10
2018-05-27T17:50:23.624Z,8.20
2018-05-27T17:52:51.176Z,7.73
2018-05-27T17:55:18.748Z,7.60
2018-05-27T17:57:46.420Z,7.90
2018-05-27T18:00:13.977Z,7.90
2018-05-27T18:02:41.590Z,8.13
2018-05-27T18:05:09.171Z,7.63
2018-05-27T18:07:37.555Z,7.90
2018-05-27T18:10:05.159Z,7.90
2018-05-27T18:12:32.797Z,7.50
2018-05-27T18:15:00.428Z,7.53
2018-05-27T18:17:27.986Z,8.33
2018-05-27T18:19:55.707Z,7.93
2018-05-27T18:22:23.336Z,7.43
2018-05-27T18:24:50.903Z,7.50
2018-05-27T18:27:18.509Z,8.23
2018-05-27T18:29:46.078Z,8.63
2018-05-27T18:32:14.462Z,8.27
2018-05-27T18:34:42.141Z,7.90
2018-05-27T18:37:09.721Z,8.53
2018-05-27T18:39:37.319Z,8.47
2018-05-27T18:42:04.913Z,8.67
2018-05-27T18:44:33.315Z,8.83
2018-05-27T18:47:00.909Z,8.40
2018-05-27T18:49:28.467Z,10.20
2018-05-27T18:51:56.022Z,8.43
2018-05-27T18:54:23.631Z,8.50
2018-05-27T18:56:51.974Z,8.33
2018-05-27T18:59:19.571Z,8.27
2018-05-27T19:01:47.146Z,9.13
2018-05-27T19:04:15.524Z,9.67
2018-05-27T19:06:43.867Z,9.40
2018-05-27T19:09:11.452Z,9.83
2018-05-27T19:11:38.995Z,9.93
2018-05-27T19:14:06.570Z,9.33
2018-05-27T19:16:34.189Z,10.37
2018-05-27T19:19:01.781Z,10.17
2018-05-27T19:21:29.366Z,9.40
2018-05-27T19:23:57.022Z,10.20
2018-05-27T19:26:24.594Z,9.23
2018-05-27T19:28:52.187Z,9.83
2018-05-27T19:31:19.754Z,9.50
2018-05-27T19:33:48.085Z,10.30
2018-05-27T19:36:15.673Z,10.60
2018-05-27T19:38:43.240Z,10.17
2018-05-27T19:41:10.817Z,10.13
2018-05-27T19:43:42.924Z,9.97
2018-05-27T19:46:10.522Z,10.43
2018-05-27T19:48:38.079Z,9.60
2018-05-27T19:51:05.671Z,9.73
2018-05-27T19:53:33.235Z,9.20
2018-05-27T19:56:00.807Z,9.40
2018-05-27T19:58:29.198Z,9.83
2018-05-27T20:00:56.798Z,10.13
2018-05-27T20:03:24.385Z,17.23
2018-05-27T20:05:51.970Z,10.40
2018-05-27T20:08:19.533Z,10.67
2018-05-27T20:10:47.156Z,11.77
2018-05-27T20:13:14.759Z,10.90
2018-05-27T20:15:42.368Z,9.97
2018-05-27T20:18:10.710Z,9.77
2018-05-27T20:20:38.292Z,10.17
2018-05-27T20:23:05.857Z,10.20
2018-05-27T20:25:33.436Z,10.70
2018-05-27T20:28:01.771Z,10.13
2018-05-27T20:30:29.366Z,10.53
2018-05-27T20:32:57.025Z,10.60
2018-05-27T20:35:24.595Z,9.90
2018-05-27T20:37:52.187Z,9.87
2018-05-27T20:40:19.742Z,10.23
2018-05-27T20:42:47.327Z,10.87
2018-05-27T20:45:14.879Z,10.60
2018-05-27T20:47:42.494Z,11.10
2018-05-27T20:50:10.080Z,11.00
2018-05-27T20:52:37.685Z,10.70
2018-05-27T20:55:06.016Z,10.63
2018-05-27T20:57:33.600Z,10.37
2018-05-27T21:00:01.160Z,10.37
2018-05-27T21:02:28.750Z,10.27
2018-05-27T21:04:57.103Z,10.73
2018-05-27T21:07:24.738Z,11.20
2018-05-27T21:09:52.301Z,11.47
2018-05-27T21:12:19.873Z,10.83
2018-05-27T21:14:47.457Z,12.57
2018-05-27T21:17:15.027Z,12.40
2018-05-27T21:19:42.622Z,12.20
2018-05-27T21:22:10.371Z,11.97
2018-05-27T21:24:38.758Z,12.10
2018-05-27T21:27:06.318Z,12.33
2018-05-27T21:29:33.959Z,11.33
2018-05-27T21:32:01.753Z,12.13
2018-05-27T21:34:29.358Z,11.60
2018-05-27T21:36:57.723Z,11.50
2018-05-27T21:39:25.296Z,12.00
2018-05-27T21:41:52.860Z,13.67
2018-05-27T21:44:21.248Z,11.70
2018-05-27T21:46:49.592Z,11.03
2018-05-27T21:49:17.176Z,11.10
2018-05-27T21:51:44.756Z,10.87
2018-05-27T21:54:13.067Z,11.10
2018-05-27T21:56:40.626Z,12.73
2018-05-27T21:59:08.166Z,10.77
2018-05-27T22:01:35.748Z,11.17
2018-05-27T22:04:04.069Z,10.57
2018-05-27T22:06:31.660Z,11.43
2018-05-27T22:08:59.221Z,10.33
2018-05-27T22:11:26.803Z,11.63
2018-05-27T22:13:54.367Z,11.57
2018-05-27T22:16:21.964Z,11.50
2018-05-27T22:18:49.527Z,10.37
2018-05-27T22:21:17.114Z,10.80
2018-05-27T22:23:44.672Z,12.80
2018-05-27T22:26:12.262Z,12.10
2018-05-27T22:28:39.874Z,10.33
2018-05-27T22:31:08.235Z,10.07
2018-05-27T22:33:35.819Z,11.87
2018-05-27T22:36:03.456Z,10.20
2018-05-27T22:38:31.065Z,10.37
2018-05-27T22:40:59.435Z,9.90
2018-05-27T22:43:27.935Z,11.80
2018-05-27T22:45:55.557Z,9.03
2018-05-27T22:48:23.931Z,10.30
2018-05-27T22:50:51.526Z,9.40
2018-05-27T22:53:19.109Z,9.60
2018-05-27T22:55:47.438Z,9.33
2018-05-27T22:58:15.024Z,8.90
2018-05-27T23:00:42.576Z,8.47
2018-05-27T23:03:10.167Z,8.60
2018-05-27T23:05:37.718Z,8.03
2018-05-27T23:08:05.500Z,8.50
2018-05-27T23:10:33.813Z,7.50
2018-05-27T23:13:01.362Z,7.90
2018-05-27T23:15:28.968Z,8.40
2018-05-27T23:17:56.523Z,7.07
2018-05-27T23:20:24.114Z,7.83
2018-05-27T23:22:51.703Z,7.00
2018-05-27T23:25:20.133Z,8.60
2018-05-27T23:27:47.687Z,7.00
2018-05-27T23:30:15.281Z,7.03
2018-05-27T23:32:42.879Z,6.63
2018-05-27T23:35:10.484Z,6.30
2018-05-27T23:37:38.034Z,6.60
2018-05-27T23:40:05.644Z,6.20
2018-05-27T23:42:33.232Z,6.43
2018-05-27T23:45:00.821Z,6.27
2018-05-27T23:47:29.149Z,5.70
2018-05-27T23:49:56.756Z,6.13
2018-05-27T23:52:25.127Z,5.50
2018-05-27T23:54:52.698Z,5.43
2018-05-27T23:57:20.290Z,5.30
2018-05-27T23:59:48.608Z,7.80
